Time;durP1;ratioP1;P1;durP2;ratioP2;P2;SDS_P1;SDS_P2;PMS_P1;PMS_P2;Temp;Humidity;BMP_temperature;BMP_pressure;BME280_temperature;BME280_humidity;BME280_pressure;Samples;Min_cycle;Max_cycle;Signal;HPM_P1;HPM_P2
2022/01/16 00:00:09;;;;;;;45.47;26.90;;;;;;;-0.25;98.89;102340.59;5050832;28;20036;-66
2022/01/16 00:05:18;;;;;;;43.35;26.38;;;;;;;-0.22;99.19;102357.13;5042633;28;20026;-68
2022/01/16 00:07:43;;;;;;;54.50;26.05;;;;;;;-0.23;99.14;102349.31;5049470;28;20089;-67
2022/01/16 00:10:09;;;;;;;48.20;27.65;;;;;;;-0.23;98.77;102359.75;5051008;28;20033;-68
2022/01/16 00:12:35;;;;;;;44.15;27.60;;;;;;;-0.23;99.15;102360.63;5041423;28;20144;-69
2022/01/16 00:15:01;;;;;;;41.25;27.65;;;;;;;-0.22;99.04;102356.25;5049668;28;20033;-67
2022/01/16 00:17:28;;;;;;;65.72;26.77;;;;;;;-0.24;98.91;102369.31;5049802;28;20036;-68
2022/01/16 00:19:53;;;;;;;44.42;27.85;;;;;;;-0.22;99.09;102367.56;5048839;28;20009;-68
2022/01/16 00:22:23;;;;;;;43.58;28.65;;;;;;;-0.19;99.24;102358.84;5043345;28;20124;-68
2022/01/16 00:24:48;;;;;;;48.47;27.40;;;;;;;-0.20;98.91;102352.75;5051052;28;20103;-67
2022/01/16 00:27:13;;;;;;;50.42;27.58;;;;;;;-0.21;98.66;102347.53;5049547;28;20033;-68
2022/01/16 00:29:38;;;;;;;48.90;28.58;;;;;;;-0.26;98.62;102337.13;5044521;28;20044;-68
2022/01/16 00:32:04;;;;;;;49.78;27.38;;;;;;;-0.28;98.78;102327.59;5049233;28;20036;-68
2022/01/16 00:34:29;;;;;;;50.50;29.38;;;;;;;-0.30;98.72;102332.81;5042146;28;20053;-69
2022/01/16 00:36:55;;;;;;;49.78;30.20;;;;;;;-0.31;98.93;102351.09;5047355;28;20071;-69
2022/01/16 00:39:20;;;;;;;47.40;28.40;;;;;;;-0.32;99.19;102347.59;5050380;28;20044;-68
2022/01/16 00:41:46;;;;;;;59.67;28.60;;;;;;;-0.31;99.03;102343.28;5046252;28;20321;-68
2022/01/16 00:44:12;;;;;;;50.58;28.10;;;;;;;-0.33;99.21;102338.06;5050264;28;20044;-69
2022/01/16 00:46:37;;;;;;;48.22;26.90;;;;;;;-0.31;99.08;102343.28;5036906;28;20046;-69
2022/01/16 00:49:03;;;;;;;46.85;28.40;;;;;;;-0.34;98.76;102331.09;5048556;28;20078;-68
2022/01/16 00:51:28;;;;;;;46.58;27.83;;;;;;;-0.35;99.11;102332.00;5049922;28;20064;-69
2022/01/16 00:53:53;;;;;;;47.00;27.63;;;;;;;-0.35;99.07;102347.66;5047833;28;20040;-68
2022/01/16 00:56:19;;;;;;;49.30;29.10;;;;;;;-0.33;99.08;102339.78;5050652;28;20047;-69
2022/01/16 00:58:44;;;;;;;45.75;26.98;;;;;;;-0.34;99.08;102311.97;5050237;28;20021;-68
2022/01/16 01:01:10;;;;;;;46.20;28.30;;;;;;;-0.35;99.18;102305.88;5051896;28;20025;-69
2022/01/16 01:03:36;;;;;;;49.13;27.90;;;;;;;-0.36;99.33;102298.06;5049774;28;20083;-69
2022/01/16 01:06:02;;;;;;;47.20;27.38;;;;;;;-0.34;99.21;102319.78;5049125;28;20514;-68
2022/01/16 01:08:29;;;;;;;43.75;27.58;;;;;;;-0.34;99.43;102302.38;5044643;28;20036;-68
2022/01/16 01:10:56;;;;;;;48.83;28.15;;;;;;;-0.31;99.45;102322.38;5048645;28;20029;-67
2022/01/16 01:13:23;;;;;;;49.35;28.08;;;;;;;-0.31;99.30;102318.03;5054514;28;20045;-68
2022/01/16 01:15:57;;;;;;;51.45;29.90;;;;;;;-0.29;99.48;102318.00;5049080;28;20030;-68
2022/01/16 01:18:23;;;;;;;54.55;28.92;;;;;;;-0.31;99.85;102304.97;5052839;28;20028;-67
2022/01/16 01:20:50;;;;;;;51.85;28.45;;;;;;;-0.29;99.82;102312.78;5054188;28;20034;-67
2022/01/16 01:23:16;;;;;;;55.45;29.38;;;;;;;-0.29;99.75;102312.78;5048699;28;20089;-66
2022/01/16 01:25:42;;;;;;;54.85;29.45;;;;;;;-0.30;99.41;102304.09;5043073;28;20049;-67
2022/01/16 01:28:08;;;;;;;50.22;29.75;;;;;;;-0.31;99.62;102314.56;5050796;28;20025;-67
2022/01/16 01:30:34;;;;;;;51.88;28.80;;;;;;;-0.28;99.80;102314.53;5052305;28;20037;-66
2022/01/16 01:33:00;;;;;;;57.55;29.13;;;;;;;-0.27;99.75;102316.25;5040822;28;20061;-67
2022/01/16 01:35:25;;;;;;;62.75;29.00;;;;;;;-0.25;99.79;102297.09;5053385;28;20029;-67
2022/01/16 01:37:51;;;;;;;54.67;28.60;;;;;;;-0.23;99.86;102250.94;5046631;28;20030;-67
2022/01/16 01:40:19;;;;;;;63.30;28.80;;;;;;;-0.25;99.66;102226.59;5051056;28;20056;-67
2022/01/16 01:43:02;;;;;;;57.10;28.85;;;;;;;-0.20;99.66;102229.13;5046384;28;20060;-66
2022/01/16 01:51:14;;;;;;;54.67;29.85;;;;;;;-0.21;100.00;102262.22;5038029;28;20110;-66
2022/01/16 01:53:41;;;;;;;76.75;30.13;;;;;;;-0.22;99.97;102270.06;5050426;28;20045;-67
2022/01/16 01:56:08;;;;;;;63.85;30.70;;;;;;;-0.22;100.00;102278.78;5043713;28;20045;-67
2022/01/16 01:58:35;;;;;;;59.13;29.88;;;;;;;-0.23;100.00;102299.69;5047803;28;20029;-66
2022/01/16 02:01:00;;;;;;;61.58;29.70;;;;;;;-0.23;100.00;102292.72;5047498;28;20090;-68
2022/01/16 02:05:54;;;;;;;57.33;29.77;;;;;;;-0.23;100.00;102308.38;5044057;28;20029;-66
2022/01/16 02:08:19;;;;;;;64.30;31.02;;;;;;;-0.23;100.00;102320.59;5051659;28;20048;-66
2022/01/16 02:10:45;;;;;;;65.45;29.88;;;;;;;-0.21;100.00;102318.81;5048178;28;20030;-66
2022/01/16 02:13:21;;;;;;;63.70;29.98;;;;;;;-0.24;99.96;102319.69;5047401;28;20094;-67
2022/01/16 02:34:36;;;;;;;70.95;31.20;;;;;;;-0.34;99.58;102343.28;5043003;28;20041;-66
2022/01/16 02:37:06;;;;;;;;;;;;;;;-0.27;99.79;102338.00;5036790;28;20747;-67
2022/01/16 02:39:35;;;;;;;71.18;30.40;;;;;;;-0.35;99.93;102336.31;5040749;28;19963;-66
2022/01/16 02:42:01;;;;;;;59.35;31.02;;;;;;;-0.32;99.90;102336.31;5041841;28;20112;-67
2022/01/16 02:46:52;;;;;;;66.78;32.25;;;;;;;-0.33;100.00;102327.63;5027025;28;20048;-66
2022/01/16 02:49:23;;;;;;;67.38;31.38;;;;;;;-0.32;99.94;102323.25;5037711;28;20487;-67
2022/01/16 02:51:51;;;;;;;66.88;32.78;;;;;;;-0.34;100.00;102312.81;5038907;28;20068;-67
2022/01/16 02:54:17;;;;;;;64.35;31.60;;;;;;;-0.29;100.00;102323.25;5041876;28;20081;-67
2022/01/16 02:56:45;;;;;;;61.28;33.50;;;;;;;-0.27;99.93;102311.03;5031824;28;20057;-66
2022/01/16 02:59:11;;;;;;;72.50;33.92;;;;;;;-0.28;100.00;102289.28;5039847;28;20025;-67
2022/01/16 03:01:37;;;;;;;78.32;33.40;;;;;;;-0.28;100.00;102281.44;5040011;28;20026;-68
2022/01/16 03:04:02;;;;;;;67.07;33.30;;;;;;;-0.26;100.00;102284.06;5025840;28;20391;-66
2022/01/16 03:06:28;;;;;;;72.13;35.28;;;;;;;-0.24;100.00;102287.50;5041864;28;20029;-67
2022/01/16 03:08:54;;;;;;;61.45;33.13;;;;;;;-0.22;100.00;102270.97;5038963;28;20040;-66
2022/01/16 03:11:35;;;;;;;76.20;34.78;;;;;;;-0.22;100.00;102276.19;5041210;28;20093;-67
2022/01/16 03:14:03;;;;;;;74.78;37.00;;;;;;;-0.20;100.00;102269.19;5039052;28;20029;-66
2022/01/16 03:16:28;;;;;;;66.18;35.00;;;;;;;-0.19;100.00;102264.84;5031670;28;20406;-66
2022/01/16 03:24:44;;;;;;;70.97;36.83;;;;;;;-0.10;100.00;102254.31;5024601;28;20047;-67
2022/01/16 03:27:14;;;;;;;76.00;38.97;;;;;;;-0.07;100.00;102266.47;5041677;28;20021;-67
2022/01/16 03:29:41;;;;;;;75.45;38.70;;;;;;;-0.06;100.00;102255.16;5026239;28;20124;-67
2022/01/16 03:32:09;;;;;;;69.20;37.95;;;;;;;-0.05;100.00;102256.84;5041592;28;20029;-67
2022/01/16 03:34:34;;;;;;;77.60;41.45;;;;;;;-0.05;100.00;102251.63;5040502;28;20483;-68
2022/01/16 03:37:00;;;;;;;79.13;39.60;;;;;;;-0.02;100.00;102254.22;5035438;28;20029;-67
2022/01/16 03:39:25;;;;;;;77.05;39.88;;;;;;;-0.01;100.00;102262.03;5039266;28;20030;-67
2022/01/16 03:41:50;;;;;;;78.13;41.88;;;;;;;0.02;100.00;102258.56;5041092;28;20040;-68
2022/01/16 03:44:17;;;;;;;78.13;39.95;;;;;;;0.03;100.00;102256.78;5035228;28;20045;-67
2022/01/16 03:46:44;;;;;;;81.68;41.08;;;;;;;0.04;100.00;102258.53;5040521;28;20033;-67
2022/01/16 03:49:18;;;;;;;75.22;41.40;;;;;;;0.06;100.00;102249.78;5040869;28;20030;-67
2022/01/16 03:51:45;;;;;;;75.03;41.53;;;;;;;0.06;100.00;102259.38;5040470;28;20625;-67
2022/01/16 03:54:13;;;;;;;80.68;41.28;;;;;;;0.09;100.00;102251.53;5031575;28;20025;-67
2022/01/16 03:56:39;;;;;;;79.57;41.90;;;;;;;0.09;100.00;102260.22;5040984;28;20411;-67
2022/01/16 03:59:05;;;;;;;75.75;40.40;;;;;;;0.12;100.00;102254.09;5029249;28;20364;-68
2022/01/16 04:01:31;;;;;;;76.55;42.15;;;;;;;0.12;100.00;102254.97;5031937;28;20033;-67
2022/01/16 04:03:57;;;;;;;77.10;41.97;;;;;;;0.15;100.00;102246.22;5040088;28;20030;-67
2022/01/16 04:06:22;;;;;;;81.95;43.42;;;;;;;0.15;100.00;102257.53;5032278;28;20093;-67
2022/01/16 04:08:49;;;;;;;77.75;43.08;;;;;;;0.16;100.00;102266.25;5039001;28;20025;-67
2022/01/16 04:11:16;;;;;;;78.95;44.13;;;;;;;0.18;100.00;102262.75;5035743;28;20335;-67
2022/01/16 04:13:49;;;;;;;78.72;43.92;;;;;;;0.22;100.00;102260.06;5034031;28;20026;-68
2022/01/16 04:16:15;;;;;;;76.07;43.65;;;;;;;0.22;100.00;102252.22;5042076;28;20056;-67
2022/01/16 04:18:41;;;;;;;71.20;42.25;;;;;;;0.22;100.00;102253.13;5041205;28;20075;-67
2022/01/16 04:21:06;;;;;;;81.03;45.90;;;;;;;0.25;100.00;102260.03;5036114;28;20491;-67
2022/01/16 04:23:31;;;;;;;77.10;43.83;;;;;;;0.27;100.00;102250.47;5037690;28;20064;-68
2022/01/16 04:25:57;;;;;;;82.07;43.08;;;;;;;0.27;100.00;102253.09;5039566;28;20169;-68
2022/01/16 04:28:24;;;;;;;73.43;42.38;;;;;;;0.27;100.00;102256.53;5040354;28;20079;-67
2022/01/16 04:30:53;;;;;;;77.00;43.63;;;;;;;0.27;100.00;102245.25;5040316;28;20021;-68
2022/01/16 04:33:19;;;;;;;75.88;43.45;;;;;;;0.28;100.00;102252.19;5025954;28;20379;-68
2022/01/16 04:35:44;;;;;;;72.45;43.92;;;;;;;0.27;100.00;102256.53;5041268;28;20029;-67
2022/01/16 04:38:10;;;;;;;72.13;43.78;;;;;;;0.28;100.00;102253.03;5039304;28;20026;-67
2022/01/16 04:43:47;;;;;;;72.00;43.22;;;;;;;0.31;100.00;102260.00;5036101;28;20117;-68
2022/01/16 04:46:10;;;;;;;74.40;43.05;;;;;;;0.33;100.00;102258.22;5041118;28;20450;-67
2022/01/16 04:48:36;;;;;;;70.63;41.45;;;;;;;0.33;100.00;102232.09;5041373;28;20037;-68
2022/01/16 04:51:01;;;;;;;77.28;45.08;;;;;;;0.34;100.00;102241.66;5041882;28;20050;-67
2022/01/16 04:53:26;;;;;;;75.65;42.75;;;;;;;0.35;100.00;102246.00;5030597;28;20034;-67
2022/01/16 04:55:52;;;;;;;68.90;43.40;;;;;;;0.35;100.00;102232.94;5042171;28;20025;-67
2022/01/16 04:58:20;;;;;;;69.22;43.58;;;;;;;0.36;100.00;102232.06;5042662;28;20067;-68
2022/01/16 05:00:45;;;;;;;74.13;45.55;;;;;;;0.36;100.00;102232.91;5029646;28;20029;-67
2022/01/16 05:03:10;;;;;;;73.30;43.50;;;;;;;0.39;100.00;102241.63;5036309;28;20125;-67
2022/01/16 05:05:36;;;;;;;71.75;43.25;;;;;;;0.39;100.00;102249.47;5043400;28;20033;-68
2022/01/16 05:08:01;;;;;;;75.32;44.88;;;;;;;0.41;100.00;102229.38;5035862;28;20041;-67
2022/01/16 05:10:27;;;;;;;74.80;46.05;;;;;;;0.42;100.00;102223.25;5037972;28;20025;-68
2022/01/16 05:12:53;;;;;;;74.88;45.03;;;;;;;0.41;100.00;102217.19;5041692;28;20845;-68
2022/01/16 05:18:02;;;;;;;75.88;45.42;;;;;;;0.44;100.00;102224.97;5050642;28;20101;-68
2022/01/16 05:20:27;;;;;;;77.65;47.38;;;;;;;0.46;100.00;102225.81;5047501;28;20038;-68
2022/01/16 05:22:53;;;;;;;82.18;47.65;;;;;;;0.47;100.00;102224.94;5045056;28;20439;-67
2022/01/16 05:25:18;;;;;;;80.03;47.30;;;;;;;0.50;100.00;102224.03;5040899;28;20025;-67
2022/01/16 05:27:45;;;;;;;76.95;47.08;;;;;;;0.50;100.00;102217.09;5042337;28;20037;-67
2022/01/16 05:30:10;;;;;;;87.18;49.75;;;;;;;0.52;100.00;102217.06;5024748;28;20061;-67
2022/01/16 05:32:35;;;;;;;82.70;49.70;;;;;;;0.55;100.00;102219.66;5022527;28;20348;-67
2022/01/16 05:35:02;;;;;;;89.05;49.58;;;;;;;0.57;100.00;102224.81;5021439;28;20354;-67
2022/01/16 05:37:27;;;;;;;92.60;51.88;;;;;;;0.59;100.00;102233.53;5019404;28;20022;-67
2022/01/16 05:39:53;;;;;;;86.35;51.45;;;;;;;0.60;100.00;102228.28;5019462;28;20085;-67
2022/01/16 05:42:18;;;;;;;87.47;50.13;;;;;;;0.62;100.00;102229.13;5018990;28;20026;-67
2022/01/16 05:44:43;;;;;;;86.00;49.75;;;;;;;0.65;100.00;102230.81;5019479;28;20480;-67
2022/01/16 05:47:12;;;;;;;87.05;50.00;;;;;;;0.62;100.00;102231.75;5015838;28;20080;-67
2022/01/16 05:49:39;;;;;;;82.95;49.83;;;;;;;0.67;100.00;102248.22;5015333;28;20105;-67
2022/01/16 05:52:05;;;;;;;94.38;52.35;;;;;;;0.68;100.00;102255.22;5017659;28;20388;-69
2022/01/16 05:54:30;;;;;;;91.32;51.17;;;;;;;0.69;100.00;102254.31;5016736;28;20033;-68
2022/01/16 05:56:56;;;;;;;94.65;54.75;;;;;;;0.72;100.00;102248.19;5016298;28;20066;-68
2022/01/16 05:59:21;;;;;;;88.55;52.67;;;;;;;0.72;100.00;102243.81;5018309;28;20022;-66
2022/01/16 06:01:46;;;;;;;89.63;51.38;;;;;;;0.75;100.00;102248.16;5018449;28;20113;-67
2022/01/16 06:04:11;;;;;;;99.32;53.70;;;;;;;0.76;100.00;102241.16;5018716;28;20036;-67
2022/01/16 06:06:37;;;;;;;97.35;54.17;;;;;;;0.77;100.00;102248.09;5018002;28;20029;-66
2022/01/16 06:09:02;;;;;;;94.05;52.20;;;;;;;0.78;100.00;102245.47;5020642;28;20054;-66
2022/01/16 06:11:27;;;;;;;91.82;52.97;;;;;;;0.80;100.00;102243.72;5017335;28;20039;-66
2022/01/16 06:13:53;;;;;;;99.00;54.22;;;;;;;0.83;100.00;102235.81;5020130;28;20060;-66
2022/01/16 06:16:18;;;;;;;94.32;55.55;;;;;;;0.86;100.00;102245.38;5033444;28;20029;-67
2022/01/16 06:18:43;;;;;;;96.53;56.22;;;;;;;0.87;100.00;102236.66;5029652;28;20025;-67
2022/01/16 06:21:08;;;;;;;95.25;54.25;;;;;;;0.90;100.00;102234.84;5034621;28;20064;-65
2022/01/16 06:23:34;;;;;;;101.18;55.17;;;;;;;0.94;100.00;102237.44;5037653;28;20115;-65
2022/01/16 06:25:59;;;;;;;99.78;54.92;;;;;;;0.97;100.00;102245.25;5023210;28;20033;-65
2022/01/16 06:28:25;;;;;;;101.07;55.92;;;;;;;0.99;100.00;102240.84;5036245;28;20039;-66
2022/01/16 06:30:51;;;;;;;98.95;55.88;;;;;;;1.03;100.00;102245.13;5035822;28;20383;-65
2022/01/16 06:33:17;;;;;;;104.15;60.10;;;;;;;1.05;100.00;102248.59;5030066;28;20036;-65
2022/01/16 06:35:42;;;;;;;104.40;57.72;;;;;;;1.07;100.00;102257.31;5030494;28;20087;-66
2022/01/16 06:38:08;;;;;;;107.20;56.75;;;;;;;1.09;100.00;102266.84;5037189;28;20030;-66
2022/01/16 06:40:33;;;;;;;104.88;56.10;;;;;;;1.13;100.00;102272.03;5033608;28;20034;-66
2022/01/16 06:42:58;;;;;;;109.25;56.72;;;;;;;1.15;100.00;102268.53;5026678;28;20074;-66
2022/01/16 06:45:24;;;;;;;100.95;56.13;;;;;;;1.16;100.00;102278.09;5033174;28;20531;-65
2022/01/16 06:47:51;;;;;;;93.97;54.90;;;;;;;1.18;100.00;102270.22;5032942;28;20029;-67
2022/01/16 06:50:16;;;;;;;104.90;56.55;;;;;;;1.21;100.00;102275.41;5033039;28;20054;-66
2022/01/16 06:52:42;;;;;;;94.15;54.22;;;;;;;1.23;100.00;102265.78;5025687;28;20021;-66
2022/01/16 06:55:07;;;;;;;97.82;54.22;;;;;;;1.26;100.00;102277.06;5029738;28;20039;-67
2022/01/16 06:57:33;;;;;;;92.35;53.80;;;;;;;1.27;100.00;102276.19;5033245;28;20424;-67
2022/01/16 06:59:58;;;;;;;92.13;52.50;;;;;;;1.31;100.00;102281.38;5033191;28;20044;-67
2022/01/16 07:02:23;;;;;;;92.78;52.38;;;;;;;1.33;100.00;102283.06;5031350;28;20171;-67
2022/01/16 07:04:48;;;;;;;93.72;52.83;;;;;;;1.34;100.00;102282.19;5023966;28;20026;-68
2022/01/16 07:07:14;;;;;;;97.07;54.17;;;;;;;1.36;100.00;102290.88;5032109;28;20403;-67
2022/01/16 07:09:39;;;;;;;92.60;53.47;;;;;;;1.39;100.00;102290.00;5025482;28;20313;-67
2022/01/16 07:12:06;;;;;;;87.72;50.10;;;;;;;1.40;100.00;102287.34;5031570;28;20037;-67
2022/01/16 07:14:31;;;;;;;91.82;50.03;;;;;;;1.42;100.00;102296.03;5030683;28;20036;-67
2022/01/16 07:16:56;;;;;;;85.88;49.50;;;;;;;1.45;100.00;102303.84;5026117;28;20104;-66
2022/01/16 07:19:22;;;;;;;85.65;49.00;;;;;;;1.47;100.00;102315.16;5025816;28;20041;-67
2022/01/16 07:21:47;;;;;;;78.70;47.00;;;;;;;1.50;100.00;102318.63;5031141;28;20021;-66
2022/01/16 07:24:15;;;;;;;92.22;50.20;;;;;;;1.52;100.00;102329.97;5038511;28;20403;-66
2022/01/16 07:26:42;;;;;;;86.13;47.75;;;;;;;1.54;100.00;102334.25;5038864;28;20053;-67
2022/01/16 07:29:07;;;;;;;85.68;49.42;;;;;;;1.56;100.00;102331.63;5048653;28;20103;-66
2022/01/16 07:31:33;;;;;;;84.38;47.75;;;;;;;1.58;100.00;102335.97;5039549;28;20048;-66
2022/01/16 07:33:59;;;;;;;83.43;48.28;;;;;;;1.59;100.00;102340.28;5036394;28;20064;-67
2022/01/16 07:36:24;;;;;;;76.43;46.53;;;;;;;1.61;100.00;102346.38;5037015;28;20041;-66
2022/01/16 07:38:49;;;;;;;78.97;46.30;;;;;;;1.62;100.00;102353.34;5036732;28;20065;-66
2022/01/16 07:41:14;;;;;;;77.25;46.58;;;;;;;1.65;100.00;102360.31;5040851;28;20075;-66
2022/01/16 07:43:40;;;;;;;74.45;45.63;;;;;;;1.67;100.00;102341.03;5035017;28;20053;-66
2022/01/16 07:46:05;;;;;;;81.88;46.45;;;;;;;1.70;100.00;102342.78;5041841;28;20045;-66
2022/01/16 07:48:30;;;;;;;71.38;44.28;;;;;;;1.73;100.00;102347.94;5044443;28;20055;-67
2022/01/16 07:50:55;;;;;;;79.40;45.58;;;;;;;1.76;100.00;102360.13;5043401;28;20048;-66
2022/01/16 07:53:21;;;;;;;74.43;43.90;;;;;;;1.78;100.00;102360.97;5039771;28;20099;-66
2022/01/16 07:55:46;;;;;;;78.35;43.85;;;;;;;1.80;100.00;102360.06;5039965;28;20394;-67
2022/01/16 07:58:11;;;;;;;76.80;43.60;;;;;;;1.81;100.00;102369.63;5042976;28;20449;-67
2022/01/16 08:00:37;;;;;;;78.60;45.50;;;;;;;1.84;100.00;102376.59;5042343;28;20029;-66
2022/01/16 08:03:02;;;;;;;75.15;44.50;;;;;;;1.86;100.00;102374.81;5043972;28;20061;-67
2022/01/16 08:05:28;;;;;;;76.47;44.85;;;;;;;1.87;100.00;102375.69;5034470;28;20017;-67
2022/01/16 08:07:54;;;;;;;79.82;45.90;;;;;;;1.90;100.00;102386.09;5024454;28;20034;-67
2022/01/16 08:10:19;;;;;;;74.90;41.88;;;;;;;1.90;100.00;102379.13;5026277;28;20059;-67
2022/01/16 08:12:45;;;;;;;77.53;45.47;;;;;;;1.91;100.00;102367.75;5020575;28;20088;-67
2022/01/16 08:15:10;;;;;;;77.72;44.22;;;;;;;1.94;100.00;102370.31;5021431;28;20041;-67
2022/01/16 08:17:36;;;;;;;77.85;44.60;;;;;;;1.97;100.00;102372.03;5021609;28;20037;-67
2022/01/16 08:20:05;;;;;;;78.43;44.45;;;;;;;1.97;100.00;102366.81;5046338;28;20041;-68
2022/01/16 08:22:30;;;;;;;79.40;45.23;;;;;;;2.01;100.00;102357.97;5035116;28;20056;-67
2022/01/16 08:24:55;;;;;;;77.97;44.10;;;;;;;2.01;100.00;102352.75;5047827;28;20033;-67
2022/01/16 08:27:21;;;;;;;83.05;44.70;;;;;;;2.05;100.00;102357.06;5050027;28;20033;-69
2022/01/16 08:29:46;;;;;;;79.68;44.58;;;;;;;2.06;100.00;102356.16;5040088;28;20057;-67
2022/01/16 08:32:11;;;;;;;81.38;43.83;;;;;;;2.08;100.00;102358.75;5045975;28;20653;-66
2022/01/16 08:34:37;;;;;;;82.45;44.72;;;;;;;2.04;100.00;102343.06;5047138;28;20051;-68
2022/01/16 08:37:03;;;;;;;84.75;45.47;;;;;;;2.11;100.00;102354.31;5041549;28;20037;-67
2022/01/16 08:39:28;;;;;;;80.53;44.22;;;;;;;2.12;100.00;102352.59;5029507;28;20111;-67
2022/01/16 08:41:54;;;;;;;83.90;44.35;;;;;;;2.14;100.00;102359.50;5027574;28;20022;-67
2022/01/16 08:44:19;;;;;;;80.15;44.95;;;;;;;2.16;100.00;102362.09;5040165;28;20060;-67
2022/01/16 08:46:45;;;;;;;77.55;43.95;;;;;;;2.17;100.00;102362.09;5030336;28;20029;-68
2022/01/16 08:49:11;;;;;;;82.97;44.85;;;;;;;2.20;100.00;102363.81;5026649;28;20037;-67
2022/01/16 08:51:36;;;;;;;79.95;44.15;;;;;;;2.20;100.00;102363.81;5033372;28;20080;-67
2022/01/16 08:54:01;;;;;;;80.18;46.05;;;;;;;2.22;100.00;102368.13;5027279;28;20061;-67
2022/01/16 08:56:27;;;;;;;81.15;44.80;;;;;;;2.26;100.00;102374.16;5028702;28;20026;-67
2022/01/16 08:58:52;;;;;;;88.22;45.78;;;;;;;2.28;100.00;102388.13;5025126;28;20080;-67
2022/01/16 09:01:17;;;;;;;82.63;45.42;;;;;;;2.28;100.00;102382.00;5027909;28;20022;-67
2022/01/16 09:03:42;;;;;;;82.95;43.80;;;;;;;2.33;100.00;102390.66;5045942;28;20037;-67
2022/01/16 09:06:08;;;;;;;88.38;45.67;;;;;;;2.35;100.00;102392.38;5041039;28;20096;-67
2022/01/16 09:08:33;;;;;;;85.05;46.80;;;;;;;2.37;100.00;102390.56;5029489;28;20147;-67
2022/01/16 09:10:58;;;;;;;93.32;46.40;;;;;;;2.41;100.00;102396.63;5024198;28;20029;-67
2022/01/16 09:13:24;;;;;;;90.20;45.30;;;;;;;2.44;100.00;102396.59;5024361;28;20042;-67
2022/01/16 09:15:50;;;;;;;95.40;48.28;;;;;;;2.47;100.00;102399.16;5038640;28;20040;-67
2022/01/16 09:18:17;;;;;;;91.65;46.72;;;;;;;2.50;100.00;102409.59;5022848;28;20073;-68
2022/01/16 09:20:43;;;;;;;95.80;47.78;;;;;;;2.54;100.00;102410.41;5025046;28;20037;-66
2022/01/16 09:23:09;;;;;;;92.15;47.58;;;;;;;2.54;100.00;102416.50;5020289;28;20044;-66
2022/01/16 09:25:35;;;;;;;92.25;46.47;;;;;;;2.58;100.00;102419.94;5026587;28;20070;-66
2022/01/16 09:28:01;;;;;;;97.97;48.22;;;;;;;2.59;100.00;102422.53;5034129;28;20033;-68
2022/01/16 09:30:27;;;;;;;96.63;49.58;;;;;;;2.63;100.00;102428.63;5039567;28;20406;-67
2022/01/16 09:32:52;;;;;;;96.07;48.80;;;;;;;2.64;100.00;102416.34;4998197;28;20041;-67
2022/01/16 09:35:18;;;;;;;107.25;52.72;;;;;;;2.66;100.00;102422.44;5037069;28;20021;-67
2022/01/16 09:37:44;;;;;;;105.90;50.50;;;;;;;2.68;100.00;102424.16;5045600;28;20163;-69
2022/01/16 09:40:13;;;;;;;110.28;52.45;;;;;;;2.71;100.00;102424.06;5030169;28;20053;-67
2022/01/16 09:42:39;;;;;;;113.60;51.08;;;;;;;2.74;100.00;102434.50;5058507;28;20089;-67
2022/01/16 09:45:08;;;;;;;114.25;52.17;;;;;;;2.75;100.00;102431.00;5027261;28;20090;-66
2022/01/16 09:47:33;;;;;;;117.18;53.00;;;;;;;2.80;100.00;102443.16;5033184;28;20029;-67
2022/01/16 09:49:59;;;;;;;112.70;53.13;;;;;;;2.81;100.00;102432.63;5050397;28;20684;-67
2022/01/16 09:52:24;;;;;;;121.63;54.88;;;;;;;2.83;100.00;102435.22;5025288;28;20057;-66
2022/01/16 09:54:50;;;;;;;120.05;53.05;;;;;;;2.85;100.00;102438.69;5022525;28;20049;-67
2022/01/16 09:57:16;;;;;;;123.95;53.10;;;;;;;2.86;100.00;102440.44;5036245;28;20032;-67
2022/01/16 09:59:44;;;;;;;128.18;54.33;;;;;;;2.88;100.00;102441.25;5032121;28;20049;-67
2022/01/16 10:02:09;;;;;;;120.97;53.33;;;;;;;2.91;100.00;102452.56;5037015;28;20048;-67
2022/01/16 10:04:40;;;;;;;132.80;53.80;;;;;;;2.93;100.00;102450.78;5036027;28;20056;-67
2022/01/16 10:07:11;;;;;;;128.30;54.80;;;;;;;2.96;100.00;102457.72;5035810;28;20037;-66
2022/01/16 10:09:39;;;;;;;129.07;54.70;;;;;;;3.00;100.00;102469.03;5030988;28;20036;-66
2022/01/16 10:12:14;;;;;;;117.72;52.35;;;;;;;3.03;100.00;102471.59;5036180;28;20040;-66
2022/01/16 10:14:47;;;;;;;121.22;52.67;;;;;;;3.06;100.00;102471.56;5034686;28;20126;-66
2022/01/16 10:17:16;;;;;;;126.18;53.38;;;;;;;3.07;100.00;102468.03;5022235;28;20040;-66
2022/01/16 10:19:42;;;;;;;123.07;51.72;;;;;;;3.11;100.00;102469.69;5034317;28;20021;-67
2022/01/16 10:22:10;;;;;;;129.80;52.65;;;;;;;3.13;100.00;102473.16;5035544;28;20463;-66
2022/01/16 10:24:39;;;;;;;116.30;49.90;;;;;;;3.15;100.00;102484.50;5028060;28;20329;-66
2022/01/16 10:27:07;;;;;;;129.88;51.95;;;;;;;3.18;100.00;102479.22;5028930;28;20030;-66
2022/01/16 10:29:40;;;;;;;125.05;51.03;;;;;;;3.21;100.00;102488.78;5033000;28;20540;-66
2022/01/16 10:32:23;;;;;;;126.78;51.63;;;;;;;3.24;100.00;102486.94;5031835;28;20136;-66
2022/01/16 10:35:17;;;;;;;126.45;50.22;;;;;;;3.27;100.00;102472.91;5035399;28;20029;-66
2022/01/16 10:37:53;;;;;;;120.88;49.05;;;;;;;3.31;100.00;102479.81;5031736;28;20093;-66
2022/01/16 10:40:33;;;;;;;118.68;51.00;;;;;;;3.34;100.00;102490.25;5032156;28;20467;-66
2022/01/16 10:43:04;;;;;;;117.13;48.83;;;;;;;3.37;100.00;102491.97;5023044;28;20507;-66
2022/01/16 10:45:30;;;;;;;120.18;50.97;;;;;;;3.38;100.00;102486.69;5031656;28;20030;-67
2022/01/16 10:47:58;;;;;;;110.68;49.22;;;;;;;3.39;100.00;102488.41;5031523;28;20021;-66
2022/01/16 10:50:35;;;;;;;118.50;48.40;;;;;;;3.42;100.00;102485.72;5029755;28;20048;-66
2022/01/16 10:53:07;;;;;;;102.30;47.85;;;;;;;3.47;100.00;102483.00;5036822;28;20018;-66
2022/01/16 10:55:49;;;;;;;108.32;47.63;;;;;;;3.49;100.00;102484.69;5034383;28;20380;-67
2022/01/16 10:58:22;;;;;;;101.75;46.55;;;;;;;3.53;100.00;102485.53;5034594;28;20498;-67
2022/01/16 11:00:54;;;;;;;106.75;48.42;;;;;;;3.56;100.00;102489.81;5033665;28;20360;-67
2022/01/16 11:03:21;;;;;;;104.22;45.50;;;;;;;3.58;100.00;102494.16;5032273;28;20468;-66
2022/01/16 11:05:49;;;;;;;102.45;47.72;;;;;;;3.60;100.00;102494.13;5032782;28;20025;-67
2022/01/16 11:08:20;;;;;;;111.03;46.97;;;;;;;3.64;100.00;102493.16;5033239;28;20124;-68
2022/01/16 11:10:48;;;;;;;100.13;46.40;;;;;;;3.65;100.00;102495.75;5034790;28;20049;-67
2022/01/16 11:13:16;;;;;;;102.88;45.05;;;;;;;3.66;100.00;102504.50;5033647;28;20076;-67
2022/01/16 11:15:44;;;;;;;101.47;46.30;;;;;;;3.69;100.00;102504.44;5032452;28;20034;-67
2022/01/16 11:18:11;;;;;;;102.00;45.47;;;;;;;3.70;100.00;102506.19;5033647;28;20030;-67
2022/01/16 11:20:38;;;;;;;103.25;46.22;;;;;;;3.70;100.00;102488.66;5033765;28;20022;-67
2022/01/16 11:25:40;;;;;;;97.75;46.15;;;;;;;3.74;100.00;102486.81;5032798;28;20037;-67
2022/01/16 11:28:08;;;;;;;99.00;46.10;;;;;;;3.76;100.00;102489.41;5032294;28;20057;-67
2022/01/16 11:30:40;;;;;;;99.15;45.55;;;;;;;3.73;100.00;102492.09;5032110;28;20033;-67
2022/01/16 11:33:06;;;;;;;96.07;45.85;;;;;;;3.76;100.00;102505.19;5020425;28;20037;-67
2022/01/16 11:35:34;;;;;;;96.57;45.50;;;;;;;3.76;100.00;102497.28;5022035;28;20036;-66
2022/01/16 11:37:59;;;;;;;94.97;45.85;;;;;;;3.76;100.00;102499.91;5031106;28;20033;-67
2022/01/16 11:40:31;;;;;;;97.45;46.47;;;;;;;3.79;100.00;102495.47;5032293;28;20460;-66
2022/01/16 11:43:15;;;;;;;89.72;45.00;;;;;;;3.82;100.00;102500.66;5019449;28;20387;-67
2022/01/16 11:45:45;;;;;;;90.03;43.13;;;;;;;3.83;100.00;102494.50;5021333;28;20036;-66
2022/01/16 11:48:10;;;;;;;93.75;46.03;;;;;;;3.83;100.00;102494.50;5017766;28;20458;-66
2022/01/16 11:50:36;;;;;;;84.78;43.67;;;;;;;3.85;100.00;102497.09;5019492;28;20034;-67